createdAt,value
2022-08-07T00:00:59.976Z,14.18
2022-08-07T00:04:15.488Z,14.10
2022-08-07T00:07:18.880Z,14.06
2022-08-07T00:10:26.127Z,14.03
2022-08-07T00:13:29.661Z,14.04
2022-08-07T00:16:31.783Z,14.01
2022-08-07T00:20:00.295Z,13.97
2022-08-07T00:22:56.743Z,13.91
2022-08-07T00:26:06.870Z,13.96
2022-08-07T00:29:17.683Z,14.06
2022-08-07T00:32:28.410Z,14.03
2022-08-07T00:35:31.050Z,14.03
2022-08-07T00:38:39.130Z,14.11
2022-08-07T00:41:53.450Z,14.11
2022-08-07T00:45:07.021Z,14.16
2022-08-07T00:48:11.268Z,14.16
2022-08-07T00:51:14.466Z,14.18
2022-08-07T00:54:19.605Z,14.14
2022-08-07T00:57:25.822Z,14.11
2022-08-07T01:00:29.076Z,14.04
2022-08-07T01:03:55.419Z,13.98
2022-08-07T01:06:57.071Z,14.03
2022-08-07T01:10:05.935Z,14.06
2022-08-07T01:13:10.435Z,14.13
2022-08-07T01:16:30.297Z,14.06
2022-08-07T01:19:38.487Z,13.93
2022-08-07T01:22:57.811Z,13.84
2022-08-07T01:26:12.223Z,13.76
2022-08-07T01:29:18.138Z,13.67
2022-08-07T01:32:22.941Z,13.59
2022-08-07T01:35:52.798Z,13.56
2022-08-07T01:38:51.456Z,13.63
2022-08-07T01:42:36.885Z,13.69
2022-08-07T01:45:23.095Z,13.74
2022-08-07T01:48:42.411Z,13.76
2022-08-07T01:52:02.301Z,13.84
2022-08-07T01:55:09.862Z,13.86
2022-08-07T01:58:33.358Z,13.97
2022-08-07T02:02:02.053Z,14.14
2022-08-07T02:05:43.042Z,14.13
2022-08-07T02:08:42.543Z,14.00
2022-08-07T02:12:03.629Z,13.86
2022-08-07T02:15:12.704Z,13.83
2022-08-07T02:18:19.233Z,13.77
2022-08-07T02:21:22.356Z,13.67
2022-08-07T02:24:29.415Z,13.57
2022-08-07T02:27:34.315Z,13.60
2022-08-07T02:30:39.670Z,13.53
2022-08-07T02:34:01.654Z,13.57
2022-08-07T02:37:09.804Z,13.53
2022-08-07T02:40:31.115Z,13.45
2022-08-07T02:43:39.587Z,13.40
2022-08-07T02:46:46.711Z,13.38
2022-08-07T02:49:59.791Z,13.36
2022-08-07T02:53:11.831Z,13.35
2022-08-07T02:56:21.692Z,13.35
2022-08-07T02:59:27.357Z,13.38
2022-08-07T03:02:33.888Z,13.40
2022-08-07T03:05:38.137Z,13.40
2022-08-07T03:08:41.851Z,13.35
2022-08-07T03:11:52.175Z,13.39
2022-08-07T03:15:07.941Z,13.26
2022-08-07T03:18:11.748Z,13.23
2022-08-07T03:21:20.644Z,13.29
2022-08-07T03:24:26.842Z,13.32
2022-08-07T03:27:58.861Z,13.35
2022-08-07T03:31:16.688Z,13.39
2022-08-07T03:34:22.141Z,13.39
2022-08-07T03:37:37.467Z,13.36
2022-08-07T03:40:57.147Z,13.27
2022-08-07T03:44:01.581Z,13.36
2022-08-07T03:47:11.287Z,13.42
2022-08-07T03:50:23.011Z,13.46
2022-08-07T03:54:05.614Z,13.39
2022-08-07T03:57:03.502Z,13.38
2022-08-07T04:00:11.736Z,13.38
2022-08-07T04:03:25.650Z,13.35
2022-08-07T04:06:37.225Z,13.29
2022-08-07T04:09:50.697Z,13.19
2022-08-07T04:12:57.999Z,13.20
2022-08-07T04:16:02.516Z,13.15
2022-08-07T04:19:14.834Z,13.19
2022-08-07T04:22:29.378Z,13.18
2022-08-07T04:25:39.378Z,13.14
2022-08-07T04:28:45.127Z,13.11
2022-08-07T04:32:10.068Z,13.06
2022-08-07T04:35:11.459Z,12.96
2022-08-07T04:38:15.680Z,13.01
2022-08-07T04:41:20.960Z,13.08
2022-08-07T04:44:27.474Z,13.15
2022-08-07T04:47:59.571Z,13.15
2022-08-07T04:51:15.239Z,13.12
2022-08-07T04:54:30.759Z,13.14
2022-08-07T04:58:11.571Z,13.19
2022-08-07T05:01:55.930Z,13.19
2022-08-07T05:05:51.927Z,13.19
2022-08-07T05:09:01.854Z,13.22
2022-08-07T05:12:15.596Z,13.18
2022-08-07T05:15:37.650Z,13.26
2022-08-07T05:18:51.103Z,13.36
2022-08-07T05:22:00.093Z,13.43
2022-08-07T05:25:11.856Z,13.55
2022-08-07T05:28:32.497Z,13.62
2022-08-07T05:31:47.454Z,13.74
2022-08-07T05:34:56.907Z,13.77
2022-08-07T05:38:08.717Z,13.91
2022-08-07T05:41:15.922Z,14.17
2022-08-07T05:44:29.250Z,14.34
2022-08-07T05:47:38.520Z,14.76
2022-08-07T05:51:01.165Z,15.36
2022-08-07T05:54:12.342Z,15.78
2022-08-07T05:57:34.468Z,16.24
2022-08-07T06:00:39.361Z,16.60
2022-08-07T06:03:56.781Z,17.02
2022-08-07T06:07:05.933Z,17.31
2022-08-07T06:10:15.135Z,17.55
2022-08-07T06:13:19.272Z,17.88
2022-08-07T06:16:50.544Z,18.09
2022-08-07T06:20:04.138Z,18.26
2022-08-07T06:23:45.800Z,18.52
2022-08-07T06:26:32.959Z,18.74
2022-08-07T06:29:38.981Z,19.03
2022-08-07T06:32:43.387Z,19.27
2022-08-07T06:36:12.201Z,19.59
2022-08-07T06:40:16.309Z,19.93
2022-08-07T06:42:38.007Z,19.96
2022-08-07T06:45:49.961Z,20.05
2022-08-07T06:48:52.320Z,20.17
2022-08-07T06:51:59.592Z,20.56
2022-08-07T06:55:34.546Z,20.67
2022-08-07T06:58:40.835Z,20.97
2022-08-07T07:02:06.295Z,21.29
2022-08-07T07:05:09.287Z,21.32
2022-08-07T07:08:18.641Z,21.39
2022-08-07T07:12:07.823Z,21.46
2022-08-07T07:15:23.824Z,21.58
2022-08-07T07:18:49.961Z,21.53
2022-08-07T07:22:04.920Z,21.92
2022-08-07T07:26:32.619Z,22.20
2022-08-07T07:29:28.593Z,22.53
2022-08-07T07:32:16.975Z,23.18
2022-08-07T07:35:20.077Z,22.98
2022-08-07T07:38:26.258Z,22.92
2022-08-07T07:41:31.121Z,23.71
2022-08-07T07:44:53.404Z,23.55
2022-08-07T07:47:57.774Z,23.81
2022-08-07T07:51:02.148Z,23.80
2022-08-07T07:54:07.724Z,24.52
2022-08-07T07:57:13.154Z,24.42
2022-08-07T08:00:28.803Z,24.58
2022-08-07T08:04:11.086Z,25.66
2022-08-07T08:07:00.654Z,25.32
2022-08-07T08:10:07.778Z,24.98
2022-08-07T08:13:15.163Z,24.86
2022-08-07T08:16:25.046Z,24.81
2022-08-07T08:20:18.658Z,25.18
2022-08-07T08:23:12.816Z,24.85
2022-08-07T08:26:37.523Z,24.75
2022-08-07T08:29:55.512Z,24.99
2022-08-07T08:33:01.848Z,25.16
2022-08-07T08:36:08.736Z,24.95
2022-08-07T08:39:11.627Z,24.89
2022-08-07T08:42:25.842Z,24.06
2022-08-07T08:46:00.695Z,24.68
2022-08-07T08:49:02.936Z,25.19
2022-08-07T08:52:40.811Z,25.09
2022-08-07T08:56:08.329Z,25.13
2022-08-07T08:59:16.622Z,25.05
2022-08-07T09:02:42.222Z,25.76
2022-08-07T09:05:55.182Z,25.98
2022-08-07T09:09:01.787Z,25.54
2022-08-07T09:12:31.379Z,25.94
2022-08-07T09:16:22.086Z,26.29
2022-08-07T09:19:50.931Z,26.96
2022-08-07T09:24:33.423Z,27.19
2022-08-07T09:26:24.676Z,26.61
2022-08-07T09:30:03.804Z,26.79
2022-08-07T09:33:56.587Z,26.59
2022-08-07T09:37:06.326Z,26.32
2022-08-07T09:40:23.918Z,26.65
2022-08-07T09:44:06.779Z,27.37
2022-08-07T09:48:00.251Z,27.37
2022-08-07T09:52:10.134Z,27.33
2022-08-07T09:54:49.582Z,29.31
2022-08-07T09:58:32.220Z,28.89
2022-08-07T10:02:08.913Z,28.56
2022-08-07T10:06:00.878Z,28.29
2022-08-07T10:10:00.921Z,27.68
2022-08-07T10:13:55.020Z,28.16
2022-08-07T10:17:20.141Z,28.86
2022-08-07T10:20:51.373Z,27.46
2022-08-07T10:24:11.127Z,27.97
2022-08-07T10:27:46.082Z,28.49
2022-08-07T10:31:22.163Z,29.75
2022-08-07T10:35:03.613Z,29.40
2022-08-07T10:38:35.454Z,28.99
2022-08-07T10:42:09.249Z,28.08
2022-08-07T10:45:57.472Z,29.26
2022-08-07T10:49:45.599Z,29.77
2022-08-07T10:53:21.466Z,28.19
2022-08-07T10:56:41.275Z,28.39
2022-08-07T11:00:36.850Z,28.31
2022-08-07T11:04:05.352Z,28.73
2022-08-07T11:07:59.536Z,29.61
2022-08-07T11:11:10.563Z,31.40
2022-08-07T11:14:46.297Z,30.79
2022-08-07T11:17:49.611Z,30.04
2022-08-07T11:21:11.253Z,29.17
2022-08-07T11:24:38.248Z,29.26
2022-08-07T11:28:03.156Z,29.62
2022-08-07T11:31:13.034Z,29.00
2022-08-07T11:34:31.889Z,28.68
2022-08-07T11:37:58.217Z,28.28
2022-08-07T11:42:02.092Z,28.22
2022-08-07T11:45:13.026Z,28.69
2022-08-07T11:49:28.565Z,29.11
2022-08-07T11:52:38.959Z,28.41
2022-08-07T11:56:26.325Z,28.69
2022-08-07T12:00:10.247Z,29.17
2022-08-07T12:03:41.403Z,29.68
2022-08-07T12:07:01.055Z,29.92
2022-08-07T12:10:26.691Z,29.47
2022-08-07T12:13:52.719Z,28.92
2022-08-07T12:17:02.259Z,28.66
2022-08-07T12:20:30.123Z,28.39
2022-08-07T12:24:06.861Z,29.49
2022-08-07T12:27:16.776Z,29.07
2022-08-07T12:30:24.180Z,28.97
2022-08-07T12:34:00.735Z,30.39
2022-08-07T12:36:57.238Z,29.47
2022-08-07T12:40:03.852Z,28.52
2022-08-07T12:44:04.552Z,29.16
2022-08-07T12:47:08.609Z,29.34
2022-08-07T12:50:38.352Z,29.23
2022-08-07T12:54:03.173Z,29.95
2022-08-07T12:57:25.743Z,28.26
2022-08-07T13:00:52.289Z,28.28
2022-08-07T13:04:34.176Z,28.21
2022-08-07T13:08:12.051Z,28.48
2022-08-07T13:11:27.193Z,28.89
2022-08-07T13:14:51.052Z,27.97
2022-08-07T13:18:08.761Z,28.00
2022-08-07T13:21:37.854Z,27.55
2022-08-07T13:24:54.009Z,28.62
2022-08-07T13:28:13.877Z,27.49
2022-08-07T13:31:32.021Z,27.61
2022-08-07T13:34:50.734Z,27.46
2022-08-07T13:38:04.263Z,26.98
2022-08-07T13:41:48.774Z,26.18
2022-08-07T13:45:20.825Z,26.72
2022-08-07T13:48:34.161Z,26.16
2022-08-07T13:52:27.235Z,26.04
2022-08-07T13:55:10.837Z,26.21
2022-08-07T13:58:34.834Z,26.92
2022-08-07T14:01:51.153Z,25.78
2022-08-07T14:05:10.338Z,24.85
2022-08-07T14:08:15.320Z,23.94
2022-08-07T14:11:21.684Z,23.63
2022-08-07T14:14:43.738Z,23.41
2022-08-07T14:18:15.801Z,23.11
2022-08-07T14:22:00.597Z,23.01
2022-08-07T14:24:49.731Z,22.83
2022-08-07T14:28:10.608Z,22.65
2022-08-07T14:31:17.469Z,22.60
2022-08-07T14:34:29.173Z,22.60
2022-08-07T14:41:04.386Z,22.64
2022-08-07T14:44:11.564Z,22.57
2022-08-07T14:47:19.823Z,22.43
2022-08-07T14:50:26.354Z,22.40
2022-08-07T14:56:57.070Z,22.33
2022-08-07T15:00:04.999Z,22.18
2022-08-07T15:06:52.535Z,22.25
2022-08-07T15:10:01.344Z,22.12
2022-08-07T15:13:17.902Z,21.90
2022-08-07T15:16:37.104Z,21.88
2022-08-07T15:23:20.624Z,21.88
2022-08-07T15:26:35.475Z,21.88
2022-08-07T15:33:19.470Z,21.67
2022-08-07T15:37:03.459Z,21.73
2022-08-07T15:43:33.059Z,21.66
2022-08-07T15:46:51.908Z,21.60
2022-08-07T15:50:06.133Z,21.49
2022-08-07T15:53:25.850Z,21.48
2022-08-07T15:56:50.335Z,21.62
2022-08-07T15:59:56.658Z,21.56
2022-08-07T16:03:06.634Z,21.50
2022-08-07T16:06:36.246Z,21.46
2022-08-07T16:09:51.821Z,21.49
2022-08-07T16:13:57.617Z,21.52
2022-08-07T16:17:14.930Z,21.46
2022-08-07T16:20:43.166Z,21.66
2022-08-07T16:24:03.088Z,22.03
2022-08-07T16:27:40.774Z,22.33
2022-08-07T16:31:04.989Z,22.67
2022-08-07T16:34:26.896Z,22.69
2022-08-07T16:38:05.547Z,22.69
2022-08-07T16:41:13.300Z,22.47
2022-08-07T16:45:14.182Z,22.13
2022-08-07T16:49:04.197Z,21.85
2022-08-07T16:52:49.306Z,21.82
2022-08-07T16:55:58.203Z,21.73
2022-08-07T16:59:14.244Z,21.66
2022-08-07T17:02:53.662Z,21.24
2022-08-07T17:06:28.926Z,21.43
2022-08-07T17:10:05.455Z,21.49
2022-08-07T17:13:23.896Z,21.37
2022-08-07T17:16:55.916Z,21.24
2022-08-07T17:20:13.971Z,21.09
2022-08-07T17:23:32.403Z,20.99
2022-08-07T17:26:50.175Z,20.91
2022-08-07T17:30:14.354Z,20.87
2022-08-07T17:34:10.163Z,20.84
2022-08-07T17:37:08.890Z,20.67
2022-08-07T17:40:36.069Z,20.68
2022-08-07T17:44:02.321Z,20.58
2022-08-07T17:47:42.092Z,20.50
2022-08-07T17:50:54.385Z,20.43
2022-08-07T17:54:29.390Z,20.34
2022-08-07T17:57:59.275Z,20.29
2022-08-07T18:01:21.198Z,20.23
2022-08-07T18:04:35.085Z,20.17
2022-08-07T18:07:44.914Z,20.10
2022-08-07T18:12:07.414Z,20.02
2022-08-07T18:15:01.186Z,19.96
2022-08-07T18:18:47.544Z,19.86
2022-08-07T18:21:55.208Z,19.73
2022-08-07T18:25:23.791Z,19.63
2022-08-07T18:29:03.586Z,19.54
2022-08-07T18:32:32.299Z,19.45
2022-08-07T18:35:52.049Z,19.41
2022-08-07T18:40:06.871Z,19.22
2022-08-07T18:43:06.445Z,19.06
2022-08-07T18:46:25.819Z,18.99
2022-08-07T18:50:34.961Z,18.91
2022-08-07T18:53:39.154Z,18.74
2022-08-07T18:57:23.417Z,18.63
2022-08-07T19:00:32.591Z,18.56
2022-08-07T19:04:25.078Z,18.37
2022-08-07T19:07:52.049Z,18.21
2022-08-07T19:11:34.855Z,18.12
2022-08-07T19:16:03.741Z,18.02
2022-08-07T19:18:44.792Z,18.04
2022-08-07T19:22:05.269Z,17.85
2022-08-07T19:26:24.611Z,17.71
2022-08-07T19:30:54.691Z,17.55
2022-08-07T19:32:18.735Z,17.50
2022-08-07T19:35:33.528Z,17.37
2022-08-07T19:38:52.659Z,17.28
2022-08-07T19:42:08.547Z,17.28
2022-08-07T19:45:53.089Z,17.26
2022-08-07T19:48:59.534Z,17.14
2022-08-07T19:52:04.397Z,17.07
2022-08-07T19:55:10.995Z,16.97
2022-08-07T19:58:15.710Z,16.90
2022-08-07T20:01:20.553Z,16.84
2022-08-07T20:04:31.456Z,16.82
2022-08-07T20:07:46.156Z,16.69
2022-08-07T20:10:56.383Z,16.66
2022-08-07T20:14:07.199Z,16.60
2022-08-07T20:17:22.585Z,16.55
2022-08-07T20:20:27.602Z,16.51
2022-08-07T20:23:43.174Z,16.47
2022-08-07T20:26:55.857Z,16.47
2022-08-07T20:30:00.706Z,16.47
2022-08-07T20:33:24.486Z,16.45
2022-08-07T20:36:34.938Z,16.38
2022-08-07T20:40:02.200Z,16.30
2022-08-07T20:43:14.816Z,16.29
2022-08-07T20:46:32.229Z,16.36
2022-08-07T20:49:58.389Z,16.28
2022-08-07T20:53:13.391Z,16.29
2022-08-07T20:56:25.930Z,16.25
2022-08-07T21:00:08.102Z,16.17
2022-08-07T21:02:58.919Z,16.18
2022-08-07T21:06:21.687Z,16.19
2022-08-07T21:09:51.962Z,16.17
2022-08-07T21:13:00.815Z,16.14
2022-08-07T21:16:06.940Z,16.04
2022-08-07T21:19:14.485Z,16.02
2022-08-07T21:22:19.933Z,15.98
2022-08-07T21:25:38.650Z,15.98
2022-08-07T21:29:12.996Z,15.97
2022-08-07T21:32:46.840Z,15.94
2022-08-07T21:36:12.058Z,15.85
2022-08-07T21:39:48.078Z,15.90
2022-08-07T21:43:13.747Z,15.88
2022-08-07T21:46:32.339Z,15.87
2022-08-07T21:50:03.259Z,15.77
2022-08-07T21:53:17.096Z,15.83
2022-08-07T21:56:36.418Z,15.81
2022-08-07T22:00:22.306Z,15.84
2022-08-07T22:03:57.502Z,15.71
2022-08-07T22:07:06.917Z,15.58
2022-08-07T22:10:14.442Z,15.61
2022-08-07T22:13:24.577Z,15.57
2022-08-07T22:17:00.210Z,15.51
2022-08-07T22:20:24.645Z,15.46
2022-08-07T22:23:56.775Z,15.47
2022-08-07T22:28:02.984Z,15.53
2022-08-07T22:31:11.522Z,15.49
2022-08-07T22:34:53.428Z,15.42
2022-08-07T22:38:33.334Z,15.42
2022-08-07T22:42:16.145Z,15.47
2022-08-07T22:46:04.262Z,15.39
2022-08-07T22:49:28.105Z,15.30
2022-08-07T22:53:15.150Z,15.44
2022-08-07T22:56:30.089Z,15.29
2022-08-07T23:00:03.197Z,15.34
2022-08-07T23:03:57.374Z,15.22
2022-08-07T23:07:40.185Z,15.22
2022-08-07T23:10:53.674Z,15.24
2022-08-07T23:14:17.578Z,15.34
2022-08-07T23:17:42.276Z,15.40
2022-08-07T23:20:53.454Z,15.34
2022-08-07T23:24:18.934Z,15.30
2022-08-07T23:28:21.348Z,15.27
2022-08-07T23:34:23.082Z,15.27
2022-08-07T23:35:29.813Z,15.16
2022-08-07T23:38:46.824Z,15.19
2022-08-07T23:42:24.002Z,15.10
2022-08-07T23:46:02.657Z,15.16
2022-08-07T23:49:50.788Z,15.19
2022-08-07T23:53:08.694Z,15.13
2022-08-07T23:56:22.478Z,15.07
